sensor_id;sensor_type;location;lat;lon;timestamp;temperature;humidity
16417;DHT22;8317;52.186;5.688;2022-10-16T00:01:15;13.40;99.90
16417;DHT22;8317;52.186;5.688;2022-10-16T00:03:43;13.30;99.90
16417;DHT22;8317;52.186;5.688;2022-10-16T00:06:11;13.30;99.90
16417;DHT22;8317;52.186;5.688;2022-10-16T00:08:38;13.30;99.90
16417;DHT22;8317;52.186;5.688;2022-10-16T00:11:08;13.20;99.90
16417;DHT22;8317;52.186;5.688;2022-10-16T00:13:37;13.30;99.90
16417;DHT22;8317;52.186;5.688;2022-10-16T00:16:06;13.20;99.90
16417;DHT22;8317;52.186;5.688;2022-10-16T00:18:34;13.20;99.90
16417;DHT22;8317;52.186;5.688;2022-10-16T00:21:03;13.30;99.90
16417;DHT22;8317;52.186;5.688;2022-10-16T00:23:30;13.30;99.90
16417;DHT22;8317;52.186;5.688;2022-10-16T00:26:00;13.40;99.90
16417;DHT22;8317;52.186;5.688;2022-10-16T00:28:27;13.30;99.90
16417;DHT22;8317;52.186;5.688;2022-10-16T00:30:56;13.30;99.90
16417;DHT22;8317;52.186;5.688;2022-10-16T00:33:23;13.40;99.90
16417;DHT22;8317;52.186;5.688;2022-10-16T00:35:50;13.30;99.90
16417;DHT22;8317;52.186;5.688;2022-10-16T00:38:17;13.40;99.90
16417;DHT22;8317;52.186;5.688;2022-10-16T00:40:44;13.40;99.90
16417;DHT22;8317;52.186;5.688;2022-10-16T00:43:32;13.50;99.90
16417;DHT22;8317;52.186;5.688;2022-10-16T00:46:02;13.40;99.90
16417;DHT22;8317;52.186;5.688;2022-10-16T00:48:30;13.50;99.90
16417;DHT22;8317;52.186;5.688;2022-10-16T00:50:58;13.50;99.90
16417;DHT22;8317;52.186;5.688;2022-10-16T00:53:25;13.40;99.90
16417;DHT22;8317;52.186;5.688;2022-10-16T00:55:52;13.50;99.90
16417;DHT22;8317;52.186;5.688;2022-10-16T00:58:20;13.50;99.90
16417;DHT22;8317;52.186;5.688;2022-10-16T01:00:46;13.40;99.90
16417;DHT22;8317;52.186;5.688;2022-10-16T01:03:27;13.40;99.90
16417;DHT22;8317;52.186;5.688;2022-10-16T01:06:05;13.50;99.90
16417;DHT22;8317;52.186;5.688;2022-10-16T01:08:43;13.50;99.90
16417;DHT22;8317;52.186;5.688;2022-10-16T01:11:17;13.50;99.90
16417;DHT22;8317;52.186;5.688;2022-10-16T01:13:48;13.50;99.90
16417;DHT22;8317;52.186;5.688;2022-10-16T01:16:22;13.60;99.90
16417;DHT22;8317;52.186;5.688;2022-10-16T01:18:56;13.70;99.90
16417;DHT22;8317;52.186;5.688;2022-10-16T01:21:28;13.70;99.90
16417;DHT22;8317;52.186;5.688;2022-10-16T01:24:04;13.70;99.90
16417;DHT22;8317;52.186;5.688;2022-10-16T01:26:50;13.70;99.90
16417;DHT22;8317;52.186;5.688;2022-10-16T01:29:23;13.70;99.90
16417;DHT22;8317;52.186;5.688;2022-10-16T01:31:55;13.70;99.90
16417;DHT22;8317;52.186;5.688;2022-10-16T01:34:28;13.70;99.90
16417;DHT22;8317;52.186;5.688;2022-10-16T01:37:02;13.80;99.90
16417;DHT22;8317;52.186;5.688;2022-10-16T01:39:33;13.70;99.90
16417;DHT22;8317;52.186;5.688;2022-10-16T01:42:06;13.70;99.90
16417;DHT22;8317;52.186;5.688;2022-10-16T01:44:37;13.70;99.90
16417;DHT22;8317;52.186;5.688;2022-10-16T01:47:06;13.70;99.90
16417;DHT22;8317;52.186;5.688;2022-10-16T01:49:36;13.70;99.90
16417;DHT22;8317;52.186;5.688;2022-10-16T01:52:07;13.70;99.90
16417;DHT22;8317;52.186;5.688;2022-10-16T01:54:37;13.80;99.90
16417;DHT22;8317;52.186;5.688;2022-10-16T01:57:05;13.70;99.90
16417;DHT22;8317;52.186;5.688;2022-10-16T01:59:37;13.60;99.90
16417;DHT22;8317;52.186;5.688;2022-10-16T02:02:09;13.60;99.90
16417;DHT22;8317;52.186;5.688;2022-10-16T02:04:39;13.60;99.90
16417;DHT22;8317;52.186;5.688;2022-10-16T02:07:07;13.60;99.90
16417;DHT22;8317;52.186;5.688;2022-10-16T02:09:34;13.50;99.90
16417;DHT22;8317;52.186;5.688;2022-10-16T02:12:08;13.60;99.90
16417;DHT22;8317;52.186;5.688;2022-10-16T02:14:39;13.60;99.90
16417;DHT22;8317;52.186;5.688;2022-10-16T02:17:11;13.60;99.90
16417;DHT22;8317;52.186;5.688;2022-10-16T02:19:38;13.60;99.90
16417;DHT22;8317;52.186;5.688;2022-10-16T02:22:07;13.60;99.90
16417;DHT22;8317;52.186;5.688;2022-10-16T02:24:38;13.60;99.90
16417;DHT22;8317;52.186;5.688;2022-10-16T02:27:09;13.60;99.90
16417;DHT22;8317;52.186;5.688;2022-10-16T02:29:41;13.60;99.90
16417;DHT22;8317;52.186;5.688;2022-10-16T02:32:13;13.60;99.90
16417;DHT22;8317;52.186;5.688;2022-10-16T02:34:41;13.70;99.90
16417;DHT22;8317;52.186;5.688;2022-10-16T02:37:09;13.70;99.90
16417;DHT22;8317;52.186;5.688;2022-10-16T02:39:37;13.70;99.90
16417;DHT22;8317;52.186;5.688;2022-10-16T02:42:10;13.70;99.90
16417;DHT22;8317;52.186;5.688;2022-10-16T02:44:38;13.70;99.90
16417;DHT22;8317;52.186;5.688;2022-10-16T02:47:05;13.60;99.90
16417;DHT22;8317;52.186;5.688;2022-10-16T02:49:32;13.70;99.90
16417;DHT22;8317;52.186;5.688;2022-10-16T02:51:59;13.70;99.90
16417;DHT22;8317;52.186;5.688;2022-10-16T02:54:26;13.70;99.90
16417;DHT22;8317;52.186;5.688;2022-10-16T02:56:53;13.70;99.90
16417;DHT22;8317;52.186;5.688;2022-10-16T02:59:19;13.70;99.90
16417;DHT22;8317;52.186;5.688;2022-10-16T03:01:48;13.60;99.90
16417;DHT22;8317;52.186;5.688;2022-10-16T03:04:14;13.60;99.90
16417;DHT22;8317;52.186;5.688;2022-10-16T03:06:41;13.70;99.90
16417;DHT22;8317;52.186;5.688;2022-10-16T03:09:08;13.60;99.90
16417;DHT22;8317;52.186;5.688;2022-10-16T03:11:35;13.60;99.90
16417;DHT22;8317;52.186;5.688;2022-10-16T03:14:02;13.60;99.90
16417;DHT22;8317;52.186;5.688;2022-10-16T03:16:29;13.60;99.90
16417;DHT22;8317;52.186;5.688;2022-10-16T03:18:57;13.60;99.90
16417;DHT22;8317;52.186;5.688;2022-10-16T03:21:24;13.50;99.90
16417;DHT22;8317;52.186;5.688;2022-10-16T03:23:51;13.50;99.90
16417;DHT22;8317;52.186;5.688;2022-10-16T03:26:18;13.50;99.90
16417;DHT22;8317;52.186;5.688;2022-10-16T03:28:44;13.40;99.90
16417;DHT22;8317;52.186;5.688;2022-10-16T03:31:11;13.50;99.90
16417;DHT22;8317;52.186;5.688;2022-10-16T03:33:38;13.40;99.90
16417;DHT22;8317;52.186;5.688;2022-10-16T03:36:06;13.40;99.90
16417;DHT22;8317;52.186;5.688;2022-10-16T03:38:33;13.30;99.90
16417;DHT22;8317;52.186;5.688;2022-10-16T03:41:00;13.40;99.90
16417;DHT22;8317;52.186;5.688;2022-10-16T03:43:27;13.40;99.90
16417;DHT22;8317;52.186;5.688;2022-10-16T03:45:54;13.40;99.90
16417;DHT22;8317;52.186;5.688;2022-10-16T03:48:21;13.30;99.90
16417;DHT22;8317;52.186;5.688;2022-10-16T03:50:48;13.30;99.90
16417;DHT22;8317;52.186;5.688;2022-10-16T03:53:17;13.40;99.90
16417;DHT22;8317;52.186;5.688;2022-10-16T03:55:44;13.40;99.90
16417;DHT22;8317;52.186;5.688;2022-10-16T03:58:11;13.40;99.90
16417;DHT22;8317;52.186;5.688;2022-10-16T04:00:40;13.40;99.90
16417;DHT22;8317;52.186;5.688;2022-10-16T04:03:07;13.40;99.90
16417;DHT22;8317;52.186;5.688;2022-10-16T04:05:34;13.50;99.90
16417;DHT22;8317;52.186;5.688;2022-10-16T04:08:01;13.40;99.90
16417;DHT22;8317;52.186;5.688;2022-10-16T04:10:29;13.50;99.90
16417;DHT22;8317;52.186;5.688;2022-10-16T04:12:56;13.40;99.90
16417;DHT22;8317;52.186;5.688;2022-10-16T04:15:24;13.30;99.90
16417;DHT22;8317;52.186;5.688;2022-10-16T04:17:51;13.20;99.90
16417;DHT22;8317;52.186;5.688;2022-10-16T04:20:19;13.20;99.90
16417;DHT22;8317;52.186;5.688;2022-10-16T04:22:45;13.30;99.90
16417;DHT22;8317;52.186;5.688;2022-10-16T04:25:12;13.30;99.90
16417;DHT22;8317;52.186;5.688;2022-10-16T04:27:40;13.30;99.90
16417;DHT22;8317;52.186;5.688;2022-10-16T04:30:08;13.20;99.90
16417;DHT22;8317;52.186;5.688;2022-10-16T04:32:35;13.20;99.90
16417;DHT22;8317;52.186;5.688;2022-10-16T04:35:02;13.20;99.90
16417;DHT22;8317;52.186;5.688;2022-10-16T04:37:29;13.30;99.90
16417;DHT22;8317;52.186;5.688;2022-10-16T04:39:56;13.10;99.90
16417;DHT22;8317;52.186;5.688;2022-10-16T04:42:23;13.20;99.90
16417;DHT22;8317;52.186;5.688;2022-10-16T04:44:51;13.30;99.90
16417;DHT22;8317;52.186;5.688;2022-10-16T04:47:18;13.20;99.90
16417;DHT22;8317;52.186;5.688;2022-10-16T04:49:45;13.20;99.90
16417;DHT22;8317;52.186;5.688;2022-10-16T04:52:12;13.10;99.90
16417;DHT22;8317;52.186;5.688;2022-10-16T04:54:39;13.10;99.90
16417;DHT22;8317;52.186;5.688;2022-10-16T04:57:06;13.10;99.90
16417;DHT22;8317;52.186;5.688;2022-10-16T04:59:32;13.10;99.90
16417;DHT22;8317;52.186;5.688;2022-10-16T05:02:01;13.10;99.90
16417;DHT22;8317;52.186;5.688;2022-10-16T05:04:27;13.10;99.90
16417;DHT22;8317;52.186;5.688;2022-10-16T05:06:54;13.10;99.90
16417;DHT22;8317;52.186;5.688;2022-10-16T05:09:21;13.10;99.90
16417;DHT22;8317;52.186;5.688;2022-10-16T05:11:48;13.10;99.90
16417;DHT22;8317;52.186;5.688;2022-10-16T05:14:15;13.10;99.90
16417;DHT22;8317;52.186;5.688;2022-10-16T05:16:42;13.00;99.90
16417;DHT22;8317;52.186;5.688;2022-10-16T05:19:10;13.00;99.90
16417;DHT22;8317;52.186;5.688;2022-10-16T05:21:37;13.00;99.90
16417;DHT22;8317;52.186;5.688;2022-10-16T05:24:04;13.00;99.90
16417;DHT22;8317;52.186;5.688;2022-10-16T05:26:31;13.00;99.90
16417;DHT22;8317;52.186;5.688;2022-10-16T05:28:58;13.00;99.90
16417;DHT22;8317;52.186;5.688;2022-10-16T05:31:25;12.90;99.90
16417;DHT22;8317;52.186;5.688;2022-10-16T05:33:51;12.90;99.90
16417;DHT22;8317;52.186;5.688;2022-10-16T05:36:20;12.90;99.90
16417;DHT22;8317;52.186;5.688;2022-10-16T05:38:50;12.80;99.90
16417;DHT22;8317;52.186;5.688;2022-10-16T05:41:18;12.80;99.90
16417;DHT22;8317;52.186;5.688;2022-10-16T05:43:47;12.80;99.90
16417;DHT22;8317;52.186;5.688;2022-10-16T05:46:14;12.70;99.90
16417;DHT22;8317;52.186;5.688;2022-10-16T05:48:41;12.70;99.90
16417;DHT22;8317;52.186;5.688;2022-10-16T05:51:13;12.70;99.90
16417;DHT22;8317;52.186;5.688;2022-10-16T05:53:41;12.70;99.90
16417;DHT22;8317;52.186;5.688;2022-10-16T05:56:11;12.70;99.90
16417;DHT22;8317;52.186;5.688;2022-10-16T05:58:38;12.60;99.90
16417;DHT22;8317;52.186;5.688;2022-10-16T06:01:09;12.60;99.90
16417;DHT22;8317;52.186;5.688;2022-10-16T06:03:36;12.60;99.90
16417;DHT22;8317;52.186;5.688;2022-10-16T06:06:08;12.60;99.90
16417;DHT22;8317;52.186;5.688;2022-10-16T06:08:35;12.70;99.90
16417;DHT22;8317;52.186;5.688;2022-10-16T06:11:04;12.70;99.90
16417;DHT22;8317;52.186;5.688;2022-10-16T06:13:32;12.80;99.90
16417;DHT22;8317;52.186;5.688;2022-10-16T06:16:00;12.80;99.90
16417;DHT22;8317;52.186;5.688;2022-10-16T06:18:28;12.80;99.90
16417;DHT22;8317;52.186;5.688;2022-10-16T06:20:55;12.80;99.90
16417;DHT22;8317;52.186;5.688;2022-10-16T06:23:22;12.90;99.90
16417;DHT22;8317;52.186;5.688;2022-10-16T06:25:49;12.80;99.90
16417;DHT22;8317;52.186;5.688;2022-10-16T06:28:18;12.80;99.90
16417;DHT22;8317;52.186;5.688;2022-10-16T06:30:44;12.80;99.90
16417;DHT22;8317;52.186;5.688;2022-10-16T06:33:11;12.90;99.90
16417;DHT22;8317;52.186;5.688;2022-10-16T06:35:38;12.90;99.90
16417;DHT22;8317;52.186;5.688;2022-10-16T06:38:05;12.90;99.90
16417;DHT22;8317;52.186;5.688;2022-10-16T06:40:32;12.90;99.90
16417;DHT22;8317;52.186;5.688;2022-10-16T06:42:59;13.00;99.90
16417;DHT22;8317;52.186;5.688;2022-10-16T06:45:27;13.00;99.90
16417;DHT22;8317;52.186;5.688;2022-10-16T06:47:54;13.00;99.90
16417;DHT22;8317;52.186;5.688;2022-10-16T06:50:21;13.10;99.90
16417;DHT22;8317;52.186;5.688;2022-10-16T06:52:49;13.00;99.90
16417;DHT22;8317;52.186;5.688;2022-10-16T06:55:16;13.10;99.90
16417;DHT22;8317;52.186;5.688;2022-10-16T06:57:43;13.10;99.90
16417;DHT22;8317;52.186;5.688;2022-10-16T07:00:11;13.10;99.90
16417;DHT22;8317;52.186;5.688;2022-10-16T07:02:39;13.20;99.90
16417;DHT22;8317;52.186;5.688;2022-10-16T07:05:06;13.30;99.90
16417;DHT22;8317;52.186;5.688;2022-10-16T07:07:33;13.30;99.90
16417;DHT22;8317;52.186;5.688;2022-10-16T07:10:00;13.30;99.90
16417;DHT22;8317;52.186;5.688;2022-10-16T07:12:27;13.30;99.90
16417;DHT22;8317;52.186;5.688;2022-10-16T07:14:54;13.30;99.90
16417;DHT22;8317;52.186;5.688;2022-10-16T07:17:21;13.30;99.90
16417;DHT22;8317;52.186;5.688;2022-10-16T07:19:49;13.40;99.90
16417;DHT22;8317;52.186;5.688;2022-10-16T07:22:18;13.40;99.90
16417;DHT22;8317;52.186;5.688;2022-10-16T07:24:45;13.40;99.90
16417;DHT22;8317;52.186;5.688;2022-10-16T07:27:12;13.40;99.90
16417;DHT22;8317;52.186;5.688;2022-10-16T07:29:41;13.50;99.90
16417;DHT22;8317;52.186;5.688;2022-10-16T07:32:07;13.50;99.90
16417;DHT22;8317;52.186;5.688;2022-10-16T07:34:34;13.60;99.90
16417;DHT22;8317;52.186;5.688;2022-10-16T07:37:03;13.60;99.90
16417;DHT22;8317;52.186;5.688;2022-10-16T07:39:29;13.60;99.90
16417;DHT22;8317;52.186;5.688;2022-10-16T07:41:56;13.60;99.90
16417;DHT22;8317;52.186;5.688;2022-10-16T07:44:23;13.70;99.90
16417;DHT22;8317;52.186;5.688;2022-10-16T07:46:51;13.70;99.90
16417;DHT22;8317;52.186;5.688;2022-10-16T07:49:17;13.70;99.90
16417;DHT22;8317;52.186;5.688;2022-10-16T07:51:44;13.80;99.90
16417;DHT22;8317;52.186;5.688;2022-10-16T07:54:12;13.80;99.90
16417;DHT22;8317;52.186;5.688;2022-10-16T07:56:39;13.90;99.90
16417;DHT22;8317;52.186;5.688;2022-10-16T07:59:06;14.00;99.90
16417;DHT22;8317;52.186;5.688;2022-10-16T08:01:33;14.10;99.90
16417;DHT22;8317;52.186;5.688;2022-10-16T08:04:00;14.20;99.90
16417;DHT22;8317;52.186;5.688;2022-10-16T08:06:27;14.30;99.90
16417;DHT22;8317;52.186;5.688;2022-10-16T08:08:55;14.30;99.90
16417;DHT22;8317;52.186;5.688;2022-10-16T08:11:24;14.40;99.90
16417;DHT22;8317;52.186;5.688;2022-10-16T08:13:51;14.50;99.90
16417;DHT22;8317;52.186;5.688;2022-10-16T08:16:18;14.80;99.90
16417;DHT22;8317;52.186;5.688;2022-10-16T08:18:45;15.20;99.90
16417;DHT22;8317;52.186;5.688;2022-10-16T08:21:14;15.40;99.90
16417;DHT22;8317;52.186;5.688;2022-10-16T08:23:41;15.70;99.90
16417;DHT22;8317;52.186;5.688;2022-10-16T08:26:09;15.70;99.90
16417;DHT22;8317;52.186;5.688;2022-10-16T08:28:37;15.70;99.90
16417;DHT22;8317;52.186;5.688;2022-10-16T08:31:06;15.90;99.90
16417;DHT22;8317;52.186;5.688;2022-10-16T08:33:32;16.20;99.90
16417;DHT22;8317;52.186;5.688;2022-10-16T08:36:00;16.60;99.90
16417;DHT22;8317;52.186;5.688;2022-10-16T08:38:27;16.70;99.90
16417;DHT22;8317;52.186;5.688;2022-10-16T08:40:59;17.00;99.90
16417;DHT22;8317;52.186;5.688;2022-10-16T08:44:00;17.00;99.90
16417;DHT22;8317;52.186;5.688;2022-10-16T08:46:40;17.00;99.90
16417;DHT22;8317;52.186;5.688;2022-10-16T08:49:11;17.00;99.90
16417;DHT22;8317;52.186;5.688;2022-10-16T08:51:39;17.30;99.90
16417;DHT22;8317;52.186;5.688;2022-10-16T08:54:25;17.50;99.90
16417;DHT22;8317;52.186;5.688;2022-10-16T08:56:55;17.60;99.90
16417;DHT22;8317;52.186;5.688;2022-10-16T08:59:23;17.80;99.90
16417;DHT22;8317;52.186;5.688;2022-10-16T09:01:52;17.90;99.90
16417;DHT22;8317;52.186;5.688;2022-10-16T09:07:32;18.00;99.90
16417;DHT22;8317;52.186;5.688;2022-10-16T09:10:19;18.20;99.90
16417;DHT22;8317;52.186;5.688;2022-10-16T09:12:53;18.50;99.90
16417;DHT22;8317;52.186;5.688;2022-10-16T09:15:31;18.40;99.90
16417;DHT22;8317;52.186;5.688;2022-10-16T09:18:06;18.30;99.90
16417;DHT22;8317;52.186;5.688;2022-10-16T09:20:44;18.10;99.90
16417;DHT22;8317;52.186;5.688;2022-10-16T09:23:15;18.70;99.90
16417;DHT22;8317;52.186;5.688;2022-10-16T09:25:46;18.90;99.90
16417;DHT22;8317;52.186;5.688;2022-10-16T09:28:15;18.90;99.90
16417;DHT22;8317;52.186;5.688;2022-10-16T09:30:43;19.00;99.90
16417;DHT22;8317;52.186;5.688;2022-10-16T09:33:12;19.10;99.90
16417;DHT22;8317;52.186;5.688;2022-10-16T09:35:41;19.20;99.90
16417;DHT22;8317;52.186;5.688;2022-10-16T09:38:09;19.30;99.90
16417;DHT22;8317;52.186;5.688;2022-10-16T09:40:47;19.40;99.90
16417;DHT22;8317;52.186;5.688;2022-10-16T09:43:21;19.70;99.90
16417;DHT22;8317;52.186;5.688;2022-10-16T09:45:57;20.10;99.90
16417;DHT22;8317;52.186;5.688;2022-10-16T09:48:28;20.30;99.90
16417;DHT22;8317;52.186;5.688;2022-10-16T09:50:59;20.30;99.90
16417;DHT22;8317;52.186;5.688;2022-10-16T09:53:37;20.60;99.90
16417;DHT22;8317;52.186;5.688;2022-10-16T09:56:05;20.60;99.90
16417;DHT22;8317;52.186;5.688;2022-10-16T09:58:32;20.80;99.90
16417;DHT22;8317;52.186;5.688;2022-10-16T10:01:00;20.90;99.90
16417;DHT22;8317;52.186;5.688;2022-10-16T10:03:35;21.00;99.90
16417;DHT22;8317;52.186;5.688;2022-10-16T10:06:15;20.70;99.90
16417;DHT22;8317;52.186;5.688;2022-10-16T10:08:56;21.00;99.90
16417;DHT22;8317;52.186;5.688;2022-10-16T10:11:44;21.10;99.90
16417;DHT22;8317;52.186;5.688;2022-10-16T10:14:23;21.00;99.90
16417;DHT22;8317;52.186;5.688;2022-10-16T10:17:01;20.60;99.90
16417;DHT22;8317;52.186;5.688;2022-10-16T10:19:28;20.40;99.90
16417;DHT22;8317;52.186;5.688;2022-10-16T10:21:55;20.70;99.90
16417;DHT22;8317;52.186;5.688;2022-10-16T10:24:22;20.50;99.90
16417;DHT22;8317;52.186;5.688;2022-10-16T10:26:56;20.50;99.90
16417;DHT22;8317;52.186;5.688;2022-10-16T10:29:34;20.90;99.90
16417;DHT22;8317;52.186;5.688;2022-10-16T10:32:14;20.80;99.90
16417;DHT22;8317;52.186;5.688;2022-10-16T10:35:02;20.40;99.90
16417;DHT22;8317;52.186;5.688;2022-10-16T10:37:42;20.20;99.90
16417;DHT22;8317;52.186;5.688;2022-10-16T10:40:21;20.50;99.90
16417;DHT22;8317;52.186;5.688;2022-10-16T10:42:55;20.90;99.90
16417;DHT22;8317;52.186;5.688;2022-10-16T10:45:27;20.70;99.90
16417;DHT22;8317;52.186;5.688;2022-10-16T10:48:10;20.40;99.90
16417;DHT22;8317;52.186;5.688;2022-10-16T10:50:43;20.30;99.90
16417;DHT22;8317;52.186;5.688;2022-10-16T10:53:21;20.30;99.90
16417;DHT22;8317;52.186;5.688;2022-10-16T10:55:57;20.20;99.90
16417;DHT22;8317;52.186;5.688;2022-10-16T10:58:51;20.10;99.90
16417;DHT22;8317;52.186;5.688;2022-10-16T11:01:24;20.30;99.90
16417;DHT22;8317;52.186;5.688;2022-10-16T11:06:48;19.70;99.90
16417;DHT22;8317;52.186;5.688;2022-10-16T11:09:19;19.30;99.90
16417;DHT22;8317;52.186;5.688;2022-10-16T11:11:52;19.20;99.90
16417;DHT22;8317;52.186;5.688;2022-10-16T11:14:25;19.10;99.90
16417;DHT22;8317;52.186;5.688;2022-10-16T11:16:56;19.10;99.90
16417;DHT22;8317;52.186;5.688;2022-10-16T11:19:34;19.10;99.90
16417;DHT22;8317;52.186;5.688;2022-10-16T11:22:09;19.00;99.90
16417;DHT22;8317;52.186;5.688;2022-10-16T11:24:44;19.40;99.90
16417;DHT22;8317;52.186;5.688;2022-10-16T11:27:17;20.10;99.90
16417;DHT22;8317;52.186;5.688;2022-10-16T11:29:51;20.40;99.90
16417;DHT22;8317;52.186;5.688;2022-10-16T11:32:25;20.60;99.90
16417;DHT22;8317;52.186;5.688;2022-10-16T11:34:59;21.00;99.90
16417;DHT22;8317;52.186;5.688;2022-10-16T11:37:32;21.60;99.90
16417;DHT22;8317;52.186;5.688;2022-10-16T11:40:16;21.70;99.90
16417;DHT22;8317;52.186;5.688;2022-10-16T11:42:50;20.90;99.90
16417;DHT22;8317;52.186;5.688;2022-10-16T11:45:26;20.90;99.90
16417;DHT22;8317;52.186;5.688;2022-10-16T11:47:59;20.90;99.90
16417;DHT22;8317;52.186;5.688;2022-10-16T11:50:33;20.60;99.90
16417;DHT22;8317;52.186;5.688;2022-10-16T11:53:04;20.70;99.90
16417;DHT22;8317;52.186;5.688;2022-10-16T11:55:38;20.50;99.90
16417;DHT22;8317;52.186;5.688;2022-10-16T11:58:09;19.90;99.90
16417;DHT22;8317;52.186;5.688;2022-10-16T12:00:45;19.80;99.90
16417;DHT22;8317;52.186;5.688;2022-10-16T12:03:19;19.70;99.90
16417;DHT22;8317;52.186;5.688;2022-10-16T12:05:58;20.10;99.90
16417;DHT22;8317;52.186;5.688;2022-10-16T12:08:29;20.00;99.90
16417;DHT22;8317;52.186;5.688;2022-10-16T12:11:07;19.90;99.90
16417;DHT22;8317;52.186;5.688;2022-10-16T12:13:36;19.90;99.90
16417;DHT22;8317;52.186;5.688;2022-10-16T12:16:06;19.90;99.90
16417;DHT22;8317;52.186;5.688;2022-10-16T12:18:33;20.10;99.90
16417;DHT22;8317;52.186;5.688;2022-10-16T12:21:03;20.40;99.90
16417;DHT22;8317;52.186;5.688;2022-10-16T12:23:32;20.10;99.90
16417;DHT22;8317;52.186;5.688;2022-10-16T12:26:01;20.50;99.90
16417;DHT22;8317;52.186;5.688;2022-10-16T12:28:30;20.70;99.90
16417;DHT22;8317;52.186;5.688;2022-10-16T12:30:59;20.90;99.90
16417;DHT22;8317;52.186;5.688;2022-10-16T12:33:29;20.50;99.90
16417;DHT22;8317;52.186;5.688;2022-10-16T12:35:57;20.40;99.90
16417;DHT22;8317;52.186;5.688;2022-10-16T12:38:29;20.70;99.90
16417;DHT22;8317;52.186;5.688;2022-10-16T12:41:00;20.80;99.90
16417;DHT22;8317;52.186;5.688;2022-10-16T12:43:36;20.70;99.90
16417;DHT22;8317;52.186;5.688;2022-10-16T12:46:18;20.30;99.90
16417;DHT22;8317;52.186;5.688;2022-10-16T12:48:47;20.00;99.90
16417;DHT22;8317;52.186;5.688;2022-10-16T12:51:23;20.00;99.90
16417;DHT22;8317;52.186;5.688;2022-10-16T12:54:03;19.90;99.90
16417;DHT22;8317;52.186;5.688;2022-10-16T12:56:41;20.10;99.90
16417;DHT22;8317;52.186;5.688;2022-10-16T12:59:22;20.40;99.90
16417;DHT22;8317;52.186;5.688;2022-10-16T13:02:09;20.70;99.90
16417;DHT22;8317;52.186;5.688;2022-10-16T13:04:55;20.90;99.90
16417;DHT22;8317;52.186;5.688;2022-10-16T13:07:40;21.10;99.90
16417;DHT22;8317;52.186;5.688;2022-10-16T13:10:18;20.90;99.90
16417;DHT22;8317;52.186;5.688;2022-10-16T13:13:09;20.60;99.90
16417;DHT22;8317;52.186;5.688;2022-10-16T13:15:57;20.70;99.90
16417;DHT22;8317;52.186;5.688;2022-10-16T13:18:31;20.80;99.90
16417;DHT22;8317;52.186;5.688;2022-10-16T13:21:11;20.60;99.90
16417;DHT22;8317;52.186;5.688;2022-10-16T13:23:48;20.50;99.90
16417;DHT22;8317;52.186;5.688;2022-10-16T13:26:27;20.50;99.90
16417;DHT22;8317;52.186;5.688;2022-10-16T13:28:59;20.40;99.90
16417;DHT22;8317;52.186;5.688;2022-10-16T13:31:26;20.20;99.90
16417;DHT22;8317;52.186;5.688;2022-10-16T13:33:56;20.20;99.90
16417;DHT22;8317;52.186;5.688;2022-10-16T13:36:26;20.10;99.90
16417;DHT22;8317;52.186;5.688;2022-10-16T13:39:07;19.90;99.90
16417;DHT22;8317;52.186;5.688;2022-10-16T13:41:39;20.10;99.90
16417;DHT22;8317;52.186;5.688;2022-10-16T13:44:12;20.30;99.90
16417;DHT22;8317;52.186;5.688;2022-10-16T13:46:40;20.50;99.90
16417;DHT22;8317;52.186;5.688;2022-10-16T13:49:12;20.40;99.90
16417;DHT22;8317;52.186;5.688;2022-10-16T13:51:40;20.40;99.90
16417;DHT22;8317;52.186;5.688;2022-10-16T13:54:09;20.30;99.90
16417;DHT22;8317;52.186;5.688;2022-10-16T13:56:40;20.10;99.90
16417;DHT22;8317;52.186;5.688;2022-10-16T13:59:23;19.70;99.90
16417;DHT22;8317;52.186;5.688;2022-10-16T14:01:52;19.70;99.90
16417;DHT22;8317;52.186;5.688;2022-10-16T14:04:21;19.30;99.90
16417;DHT22;8317;52.186;5.688;2022-10-16T14:06:50;19.30;99.90
16417;DHT22;8317;52.186;5.688;2022-10-16T14:09:22;19.30;99.90
16417;DHT22;8317;52.186;5.688;2022-10-16T14:11:53;19.20;99.90
16417;DHT22;8317;52.186;5.688;2022-10-16T14:14:22;19.20;99.90
16417;DHT22;8317;52.186;5.688;2022-10-16T14:16:50;19.00;99.90
16417;DHT22;8317;52.186;5.688;2022-10-16T14:19:20;19.10;99.90
16417;DHT22;8317;52.186;5.688;2022-10-16T14:21:49;18.90;99.90
16417;DHT22;8317;52.186;5.688;2022-10-16T14:24:25;18.90;99.90
16417;DHT22;8317;52.186;5.688;2022-10-16T14:26:54;18.90;99.90
16417;DHT22;8317;52.186;5.688;2022-10-16T14:29:23;18.80;99.90
16417;DHT22;8317;52.186;5.688;2022-10-16T14:31:57;18.80;99.90
16417;DHT22;8317;52.186;5.688;2022-10-16T14:34:27;18.80;99.90
16417;DHT22;8317;52.186;5.688;2022-10-16T14:36:54;18.80;99.90
16417;DHT22;8317;52.186;5.688;2022-10-16T14:39:23;18.80;99.90
16417;DHT22;8317;52.186;5.688;2022-10-16T14:41:55;18.90;99.90
16417;DHT22;8317;52.186;5.688;2022-10-16T14:44:28;19.00;99.90
16417;DHT22;8317;52.186;5.688;2022-10-16T14:46:56;18.90;99.90
16417;DHT22;8317;52.186;5.688;2022-10-16T14:49:25;18.70;99.90
16417;DHT22;8317;52.186;5.688;2022-10-16T14:51:53;18.70;99.90
16417;DHT22;8317;52.186;5.688;2022-10-16T14:54:20;18.70;99.90
16417;DHT22;8317;52.186;5.688;2022-10-16T14:56:49;18.70;99.90
16417;DHT22;8317;52.186;5.688;2022-10-16T14:59:22;18.70;99.90
16417;DHT22;8317;52.186;5.688;2022-10-16T15:01:51;18.50;99.90
16417;DHT22;8317;52.186;5.688;2022-10-16T15:04:18;18.30;99.90
16417;DHT22;8317;52.186;5.688;2022-10-16T15:06:45;18.30;99.90
16417;DHT22;8317;52.186;5.688;2022-10-16T15:09:12;18.30;99.90
16417;DHT22;8317;52.186;5.688;2022-10-16T15:11:39;18.20;99.90
16417;DHT22;8317;52.186;5.688;2022-10-16T15:14:09;18.10;99.90
16417;DHT22;8317;52.186;5.688;2022-10-16T15:16:39;18.00;99.90
16417;DHT22;8317;52.186;5.688;2022-10-16T15:19:05;18.10;99.90
16417;DHT22;8317;52.186;5.688;2022-10-16T15:21:33;18.10;99.90
16417;DHT22;8317;52.186;5.688;2022-10-16T15:24:00;18.00;99.90
16417;DHT22;8317;52.186;5.688;2022-10-16T15:26:28;18.10;99.90
16417;DHT22;8317;52.186;5.688;2022-10-16T15:28:55;18.00;99.90
16417;DHT22;8317;52.186;5.688;2022-10-16T15:31:23;18.00;99.90
16417;DHT22;8317;52.186;5.688;2022-10-16T15:33:52;17.90;99.90
16417;DHT22;8317;52.186;5.688;2022-10-16T15:36:27;17.80;99.90
16417;DHT22;8317;52.186;5.688;2022-10-16T15:38:54;17.70;99.90
16417;DHT22;8317;52.186;5.688;2022-10-16T15:41:22;17.60;99.90
16417;DHT22;8317;52.186;5.688;2022-10-16T15:43:50;17.50;99.90
16417;DHT22;8317;52.186;5.688;2022-10-16T15:46:19;17.40;99.90
16417;DHT22;8317;52.186;5.688;2022-10-16T15:48:47;17.30;99.90
16417;DHT22;8317;52.186;5.688;2022-10-16T15:51:15;17.20;99.90
16417;DHT22;8317;52.186;5.688;2022-10-16T15:53:42;17.10;99.90
16417;DHT22;8317;52.186;5.688;2022-10-16T15:56:12;17.00;99.90
16417;DHT22;8317;52.186;5.688;2022-10-16T15:58:39;16.90;99.90
16417;DHT22;8317;52.186;5.688;2022-10-16T16:01:06;16.70;99.90
16417;DHT22;8317;52.186;5.688;2022-10-16T16:03:35;16.60;99.90
16417;DHT22;8317;52.186;5.688;2022-10-16T16:06:07;16.60;99.90
16417;DHT22;8317;52.186;5.688;2022-10-16T16:08:36;16.60;99.90
16417;DHT22;8317;52.186;5.688;2022-10-16T16:11:05;16.60;99.90